sensor_id;sensor_type;location;lat;lon;timestamp;temperature;humidity
29363;DHT22;16349;53.672;10.014;2023-07-13T00:30:39;15.80;99.90
29363;DHT22;16349;53.672;10.014;2023-07-13T00:33:06;15.70;99.90
29363;DHT22;16349;53.672;10.014;2023-07-13T01:25:34;15.10;99.90
29363;DHT22;16349;53.672;10.014;2023-07-13T01:28:01;15.10;99.90
29363;DHT22;16349;53.672;10.014;2023-07-13T01:30:28;15.00;99.90
29363;DHT22;16349;53.672;10.014;2023-07-13T01:32:55;14.90;99.90
29363;DHT22;16349;53.672;10.014;2023-07-13T01:35:22;14.90;99.90
29363;DHT22;16349;53.672;10.014;2023-07-13T01:37:50;14.80;99.90
29363;DHT22;16349;53.672;10.014;2023-07-13T01:40:19;14.80;99.90
29363;DHT22;16349;53.672;10.014;2023-07-13T01:42:46;14.80;99.90
29363;DHT22;16349;53.672;10.014;2023-07-13T01:45:13;14.80;99.90
29363;DHT22;16349;53.672;10.014;2023-07-13T01:47:40;14.80;99.90
29363;DHT22;16349;53.672;10.014;2023-07-13T01:50:07;14.80;99.90
29363;DHT22;16349;53.672;10.014;2023-07-13T01:52:34;14.80;99.90
29363;DHT22;16349;53.672;10.014;2023-07-13T01:55:01;14.70;99.90
29363;DHT22;16349;53.672;10.014;2023-07-13T01:57:30;14.70;99.90
29363;DHT22;16349;53.672;10.014;2023-07-13T01:59:56;14.70;99.90
29363;DHT22;16349;53.672;10.014;2023-07-13T02:02:23;14.70;99.90
29363;DHT22;16349;53.672;10.014;2023-07-13T02:04:50;14.80;99.90
29363;DHT22;16349;53.672;10.014;2023-07-13T02:07:17;14.80;99.90
29363;DHT22;16349;53.672;10.014;2023-07-13T02:09:44;14.70;99.90
29363;DHT22;16349;53.672;10.014;2023-07-13T02:12:11;14.70;99.90
29363;DHT22;16349;53.672;10.014;2023-07-13T02:14:39;14.70;99.90
29363;DHT22;16349;53.672;10.014;2023-07-13T02:17:06;14.80;99.90
29363;DHT22;16349;53.672;10.014;2023-07-13T02:19:33;14.70;99.90
29363;DHT22;16349;53.672;10.014;2023-07-13T02:21:59;14.70;99.90
29363;DHT22;16349;53.672;10.014;2023-07-13T02:24:26;14.70;99.90
29363;DHT22;16349;53.672;10.014;2023-07-13T02:26:53;14.80;99.90
29363;DHT22;16349;53.672;10.014;2023-07-13T02:29:20;14.80;99.90
29363;DHT22;16349;53.672;10.014;2023-07-13T02:31:48;14.70;99.90
29363;DHT22;16349;53.672;10.014;2023-07-13T02:34:15;14.70;99.90
29363;DHT22;16349;53.672;10.014;2023-07-13T08:07:09;18.70;99.90
29363;DHT22;16349;53.672;10.014;2023-07-13T08:09:36;18.60;99.90
29363;DHT22;16349;53.672;10.014;2023-07-13T08:12:03;18.40;99.90
29363;DHT22;16349;53.672;10.014;2023-07-13T08:14:32;18.50;99.90
29363;DHT22;16349;53.672;10.014;2023-07-13T08:16:59;18.50;99.90
29363;DHT22;16349;53.672;10.014;2023-07-13T08:19:26;18.60;99.90
29363;DHT22;16349;53.672;10.014;2023-07-13T08:21:52;18.70;99.90
29363;DHT22;16349;53.672;10.014;2023-07-13T08:24:22;18.70;99.90
29363;DHT22;16349;53.672;10.014;2023-07-13T08:29:18;18.90;99.90
29363;DHT22;16349;53.672;10.014;2023-07-13T08:31:46;18.90;99.90
29363;DHT22;16349;53.672;10.014;2023-07-13T08:34:13;19.00;99.90
29363;DHT22;16349;53.672;10.014;2023-07-13T08:36:40;19.10;99.90
29363;DHT22;16349;53.672;10.014;2023-07-13T08:39:07;19.00;99.90
29363;DHT22;16349;53.672;10.014;2023-07-13T08:41:34;18.90;99.90
29363;DHT22;16349;53.672;10.014;2023-07-13T08:44:03;18.90;99.90
29363;DHT22;16349;53.672;10.014;2023-07-13T08:46:36;18.80;99.90
29363;DHT22;16349;53.672;10.014;2023-07-13T08:49:09;18.90;99.90
29363;DHT22;16349;53.672;10.014;2023-07-13T08:51:41;18.90;99.90
29363;DHT22;16349;53.672;10.014;2023-07-13T08:54:17;18.90;99.90
29363;DHT22;16349;53.672;10.014;2023-07-13T08:56:46;19.00;99.90
29363;DHT22;16349;53.672;10.014;2023-07-13T08:59:16;19.00;99.90
29363;DHT22;16349;53.672;10.014;2023-07-13T09:02:04;19.10;99.90
29363;DHT22;16349;53.672;10.014;2023-07-13T09:04:37;19.30;99.90
29363;DHT22;16349;53.672;10.014;2023-07-13T09:07:13;19.40;99.90
29363;DHT22;16349;53.672;10.014;2023-07-13T09:09:51;19.50;99.90
29363;DHT22;16349;53.672;10.014;2023-07-13T09:12:26;19.60;99.90
29363;DHT22;16349;53.672;10.014;2023-07-13T09:14:57;19.50;99.90
29363;DHT22;16349;53.672;10.014;2023-07-13T09:17:27;19.60;99.90
29363;DHT22;16349;53.672;10.014;2023-07-13T09:19:59;19.80;99.90
29363;DHT22;16349;53.672;10.014;2023-07-13T09:25:02;20.20;99.90
29363;DHT22;16349;53.672;10.014;2023-07-13T09:27:36;20.20;99.90
29363;DHT22;16349;53.672;10.014;2023-07-13T09:30:20;20.10;99.90
29363;DHT22;16349;53.672;10.014;2023-07-13T09:32:52;20.10;99.90
29363;DHT22;16349;53.672;10.014;2023-07-13T09:35:24;20.10;99.90
29363;DHT22;16349;53.672;10.014;2023-07-13T09:37:57;20.20;99.90
29363;DHT22;16349;53.672;10.014;2023-07-13T09:40:29;20.10;99.90
29363;DHT22;16349;53.672;10.014;2023-07-13T09:42:58;20.10;99.90
29363;DHT22;16349;53.672;10.014;2023-07-13T09:45:29;20.00;99.90
29363;DHT22;16349;53.672;10.014;2023-07-13T09:47:59;20.00;99.90
29363;DHT22;16349;53.672;10.014;2023-07-13T09:50:27;20.10;99.90
29363;DHT22;16349;53.672;10.014;2023-07-13T09:52:55;20.20;99.90
29363;DHT22;16349;53.672;10.014;2023-07-13T09:55:26;20.30;99.90
29363;DHT22;16349;53.672;10.014;2023-07-13T09:57:55;20.40;99.90
29363;DHT22;16349;53.672;10.014;2023-07-13T10:00:24;20.50;99.90
29363;DHT22;16349;53.672;10.014;2023-07-13T10:03:09;20.70;99.90
29363;DHT22;16349;53.672;10.014;2023-07-13T10:05:43;20.70;99.90
29363;DHT22;16349;53.672;10.014;2023-07-13T10:08:19;20.70;99.90
29363;DHT22;16349;53.672;10.014;2023-07-13T10:10:52;20.70;99.90
29363;DHT22;16349;53.672;10.014;2023-07-13T10:13:33;20.70;99.90
29363;DHT22;16349;53.672;10.014;2023-07-13T10:16:04;20.60;99.90
29363;DHT22;16349;53.672;10.014;2023-07-13T10:18:41;20.60;99.90
29363;DHT22;16349;53.672;10.014;2023-07-13T10:21:14;20.60;99.90
29363;DHT22;16349;53.672;10.014;2023-07-13T10:23:41;20.80;99.90
29363;DHT22;16349;53.672;10.014;2023-07-13T10:26:15;20.90;99.90
29363;DHT22;16349;53.672;10.014;2023-07-13T10:28:45;21.10;99.90
29363;DHT22;16349;53.672;10.014;2023-07-13T10:31:15;21.40;99.90
29363;DHT22;16349;53.672;10.014;2023-07-13T10:33:42;21.40;99.90
29363;DHT22;16349;53.672;10.014;2023-07-13T10:36:22;21.40;99.90
29363;DHT22;16349;53.672;10.014;2023-07-13T10:38:51;21.30;99.90
29363;DHT22;16349;53.672;10.014;2023-07-13T10:41:21;21.30;99.90
29363;DHT22;16349;53.672;10.014;2023-07-13T10:43:52;21.50;99.90
29363;DHT22;16349;53.672;10.014;2023-07-13T10:46:20;21.50;99.90
29363;DHT22;16349;53.672;10.014;2023-07-13T10:48:50;21.40;99.90
29363;DHT22;16349;53.672;10.014;2023-07-13T10:51:20;21.40;99.90
29363;DHT22;16349;53.672;10.014;2023-07-13T10:53:48;21.30;99.90
29363;DHT22;16349;53.672;10.014;2023-07-13T10:56:35;21.30;99.90
29363;DHT22;16349;53.672;10.014;2023-07-13T10:59:11;21.40;99.90
29363;DHT22;16349;53.672;10.014;2023-07-13T11:01:48;21.40;99.90
29363;DHT22;16349;53.672;10.014;2023-07-13T11:04:18;21.50;99.90
29363;DHT22;16349;53.672;10.014;2023-07-13T11:06:48;21.50;99.90
29363;DHT22;16349;53.672;10.014;2023-07-13T11:09:31;21.50;99.90
29363;DHT22;16349;53.672;10.014;2023-07-13T11:12:00;21.40;99.90
29363;DHT22;16349;53.672;10.014;2023-07-13T11:14:31;21.20;99.90
29363;DHT22;16349;53.672;10.014;2023-07-13T11:17:24;21.20;99.90
29363;DHT22;16349;53.672;10.014;2023-07-13T11:19:52;21.40;99.90
29363;DHT22;16349;53.672;10.014;2023-07-13T11:22:26;21.60;99.90
29363;DHT22;16349;53.672;10.014;2023-07-13T11:25:25;21.60;99.90
29363;DHT22;16349;53.672;10.014;2023-07-13T11:28:05;21.60;99.90
29363;DHT22;16349;53.672;10.014;2023-07-13T11:30:36;21.40;99.90
29363;DHT22;16349;53.672;10.014;2023-07-13T11:33:15;21.20;99.90
29363;DHT22;16349;53.672;10.014;2023-07-13T11:35:58;21.10;99.90
29363;DHT22;16349;53.672;10.014;2023-07-13T11:38:33;20.90;99.90
29363;DHT22;16349;53.672;10.014;2023-07-13T11:41:05;20.60;99.90
29363;DHT22;16349;53.672;10.014;2023-07-13T11:43:33;20.70;99.90
29363;DHT22;16349;53.672;10.014;2023-07-13T11:46:15;20.60;99.90
29363;DHT22;16349;53.672;10.014;2023-07-13T11:48:45;20.80;99.90
29363;DHT22;16349;53.672;10.014;2023-07-13T11:51:19;20.90;99.90
29363;DHT22;16349;53.672;10.014;2023-07-13T11:53:50;20.90;99.90
29363;DHT22;16349;53.672;10.014;2023-07-13T11:56:18;21.00;99.90
29363;DHT22;16349;53.672;10.014;2023-07-13T11:58:48;21.00;99.90
29363;DHT22;16349;53.672;10.014;2023-07-13T12:01:20;21.10;99.90
29363;DHT22;16349;53.672;10.014;2023-07-13T12:03:48;21.30;99.90
29363;DHT22;16349;53.672;10.014;2023-07-13T12:06:26;21.40;99.90
29363;DHT22;16349;53.672;10.014;2023-07-13T12:08:57;21.40;99.90
29363;DHT22;16349;53.672;10.014;2023-07-13T12:11:25;20.90;99.90
29363;DHT22;16349;53.672;10.014;2023-07-13T12:13:51;20.70;99.90
29363;DHT22;16349;53.672;10.014;2023-07-13T12:16:26;20.30;99.90
29363;DHT22;16349;53.672;10.014;2023-07-13T12:18:54;19.80;99.90
29363;DHT22;16349;53.672;10.014;2023-07-13T12:21:26;19.00;99.90
29363;DHT22;16349;53.672;10.014;2023-07-13T12:23:54;18.20;99.90
29363;DHT22;16349;53.672;10.014;2023-07-13T12:26:22;17.60;99.90
29363;DHT22;16349;53.672;10.014;2023-07-13T12:28:51;17.20;99.90
29363;DHT22;16349;53.672;10.014;2023-07-13T12:31:31;17.00;99.90
29363;DHT22;16349;53.672;10.014;2023-07-13T12:33:59;16.80;99.90
29363;DHT22;16349;53.672;10.014;2023-07-13T12:36:36;16.70;99.90
29363;DHT22;16349;53.672;10.014;2023-07-13T12:39:12;16.80;99.90
29363;DHT22;16349;53.672;10.014;2023-07-13T12:41:40;16.80;99.90
29363;DHT22;16349;53.672;10.014;2023-07-13T12:44:11;16.70;99.90
29363;DHT22;16349;53.672;10.014;2023-07-13T12:46:38;16.90;99.90
29363;DHT22;16349;53.672;10.014;2023-07-13T12:49:07;17.00;99.90
29363;DHT22;16349;53.672;10.014;2023-07-13T12:51:36;17.20;99.90
29363;DHT22;16349;53.672;10.014;2023-07-13T12:54:16;17.50;99.90
29363;DHT22;16349;53.672;10.014;2023-07-13T12:56:43;18.00;99.90
29363;DHT22;16349;53.672;10.014;2023-07-13T12:59:18;18.30;99.90
29363;DHT22;16349;53.672;10.014;2023-07-13T13:01:46;18.50;99.90
29363;DHT22;16349;53.672;10.014;2023-07-13T13:04:15;18.50;99.90
29363;DHT22;16349;53.672;10.014;2023-07-13T13:06:44;18.50;99.90
29363;DHT22;16349;53.672;10.014;2023-07-13T13:09:13;18.50;99.90
29363;DHT22;16349;53.672;10.014;2023-07-13T13:11:40;18.50;99.90
29363;DHT22;16349;53.672;10.014;2023-07-13T13:14:07;18.50;99.90
29363;DHT22;16349;53.672;10.014;2023-07-13T13:16:37;18.50;99.90
29363;DHT22;16349;53.672;10.014;2023-07-13T13:19:13;18.50;99.90
29363;DHT22;16349;53.672;10.014;2023-07-13T13:21:40;18.60;99.90
29363;DHT22;16349;53.672;10.014;2023-07-13T13:24:12;18.60;99.90
29363;DHT22;16349;53.672;10.014;2023-07-13T13:26:40;18.60;99.90
29363;DHT22;16349;53.672;10.014;2023-07-13T13:29:16;18.60;99.90
29363;DHT22;16349;53.672;10.014;2023-07-13T13:31:43;18.60;99.90
29363;DHT22;16349;53.672;10.014;2023-07-13T13:34:11;18.70;99.90
29363;DHT22;16349;53.672;10.014;2023-07-13T13:36:40;18.70;99.90
29363;DHT22;16349;53.672;10.014;2023-07-13T13:39:18;18.70;99.90
29363;DHT22;16349;53.672;10.014;2023-07-13T13:41:46;18.70;99.90
29363;DHT22;16349;53.672;10.014;2023-07-13T13:44:14;18.70;99.90
29363;DHT22;16349;53.672;10.014;2023-07-13T13:46:43;18.70;99.90
29363;DHT22;16349;53.672;10.014;2023-07-13T13:49:14;18.80;99.90
29363;DHT22;16349;53.672;10.014;2023-07-13T13:51:42;18.80;99.90
29363;DHT22;16349;53.672;10.014;2023-07-13T13:54:12;18.80;99.90
29363;DHT22;16349;53.672;10.014;2023-07-13T13:56:41;18.80;99.90
29363;DHT22;16349;53.672;10.014;2023-07-13T13:59:08;18.80;99.90
29363;DHT22;16349;53.672;10.014;2023-07-13T14:01:35;18.80;99.90
29363;DHT22;16349;53.672;10.014;2023-07-13T14:04:03;18.70;99.90
29363;DHT22;16349;53.672;10.014;2023-07-13T14:06:31;18.70;99.90
29363;DHT22;16349;53.672;10.014;2023-07-13T14:08:59;18.70;99.90
29363;DHT22;16349;53.672;10.014;2023-07-13T14:11:26;18.90;99.90
29363;DHT22;16349;53.672;10.014;2023-07-13T14:13:57;19.20;99.90
29363;DHT22;16349;53.672;10.014;2023-07-13T14:16:27;19.30;99.90
29363;DHT22;16349;53.672;10.014;2023-07-13T14:18:55;19.30;99.90
29363;DHT22;16349;53.672;10.014;2023-07-13T14:21:24;19.70;99.90
29363;DHT22;16349;53.672;10.014;2023-07-13T14:23:50;20.40;99.90
29363;DHT22;16349;53.672;10.014;2023-07-13T14:26:19;20.70;99.90
29363;DHT22;16349;53.672;10.014;2023-07-13T14:28:49;21.00;99.90
29363;DHT22;16349;53.672;10.014;2023-07-13T14:31:18;21.20;99.90
29363;DHT22;16349;53.672;10.014;2023-07-13T14:33:46;21.40;99.90
29363;DHT22;16349;53.672;10.014;2023-07-13T14:36:24;21.20;99.90
29363;DHT22;16349;53.672;10.014;2023-07-13T14:38:53;21.00;99.90
29363;DHT22;16349;53.672;10.014;2023-07-13T14:41:20;20.70;99.90
29363;DHT22;16349;53.672;10.014;2023-07-13T14:43:48;20.40;99.90
29363;DHT22;16349;53.672;10.014;2023-07-13T14:46:33;20.10;99.90
29363;DHT22;16349;53.672;10.014;2023-07-13T14:49:03;20.10;99.90
29363;DHT22;16349;53.672;10.014;2023-07-13T14:51:33;20.20;99.90
29363;DHT22;16349;53.672;10.014;2023-07-13T14:54:03;20.30;99.90
29363;DHT22;16349;53.672;10.014;2023-07-13T14:56:31;20.30;99.90
29363;DHT22;16349;53.672;10.014;2023-07-13T14:58:57;20.50;99.90
29363;DHT22;16349;53.672;10.014;2023-07-13T15:01:24;20.60;99.90
29363;DHT22;16349;53.672;10.014;2023-07-13T15:03:53;20.50;99.90
29363;DHT22;16349;53.672;10.014;2023-07-13T15:06:20;20.60;99.90
29363;DHT22;16349;53.672;10.014;2023-07-13T15:08:47;20.70;99.90
29363;DHT22;16349;53.672;10.014;2023-07-13T15:11:15;20.80;99.90
29363;DHT22;16349;53.672;10.014;2023-07-13T15:13:43;20.90;99.90
29363;DHT22;16349;53.672;10.014;2023-07-13T15:16:16;21.60;99.90
29363;DHT22;16349;53.672;10.014;2023-07-13T15:18:46;22.70;99.90
29363;DHT22;16349;53.672;10.014;2023-07-13T15:21:24;23.40;99.90
29363;DHT22;16349;53.672;10.014;2023-07-13T20:54:20;17.20;99.90
29363;DHT22;16349;53.672;10.014;2023-07-13T20:56:48;17.10;99.90
29363;DHT22;16349;53.672;10.014;2023-07-13T20:59:15;17.00;99.90
29363;DHT22;16349;53.672;10.014;2023-07-13T21:01:41;16.90;99.90
29363;DHT22;16349;53.672;10.014;2023-07-13T21:04:11;16.80;99.90
29363;DHT22;16349;53.672;10.014;2023-07-13T21:06:40;16.80;99.90
29363;DHT22;16349;53.672;10.014;2023-07-13T21:09:14;16.70;99.90
29363;DHT22;16349;53.672;10.014;2023-07-13T21:11:43;16.70;99.90
29363;DHT22;16349;53.672;10.014;2023-07-13T21:14:11;16.60;99.90
29363;DHT22;16349;53.672;10.014;2023-07-13T21:16:38;16.60;99.90
29363;DHT22;16349;53.672;10.014;2023-07-13T21:19:04;16.60;99.90
29363;DHT22;16349;53.672;10.014;2023-07-13T21:21:31;16.50;99.90
29363;DHT22;16349;53.672;10.014;2023-07-13T21:23:58;16.60;99.90
29363;DHT22;16349;53.672;10.014;2023-07-13T21:26:25;16.50;99.90
29363;DHT22;16349;53.672;10.014;2023-07-13T21:28:52;16.40;99.90
29363;DHT22;16349;53.672;10.014;2023-07-13T21:31:23;16.40;99.90
29363;DHT22;16349;53.672;10.014;2023-07-13T21:33:53;16.40;99.90
29363;DHT22;16349;53.672;10.014;2023-07-13T21:36:21;16.30;99.90
29363;DHT22;16349;53.672;10.014;2023-07-13T21:38:54;16.20;99.90
29363;DHT22;16349;53.672;10.014;2023-07-13T21:41:25;16.20;99.90
29363;DHT22;16349;53.672;10.014;2023-07-13T21:43:52;16.20;99.90
29363;DHT22;16349;53.672;10.014;2023-07-13T21:46:20;16.10;99.90
29363;DHT22;16349;53.672;10.014;2023-07-13T21:48:48;16.10;99.90
29363;DHT22;16349;53.672;10.014;2023-07-13T21:51:17;16.10;99.90
29363;DHT22;16349;53.672;10.014;2023-07-13T21:53:46;16.10;99.90
29363;DHT22;16349;53.672;10.014;2023-07-13T21:56:13;16.10;99.90
29363;DHT22;16349;53.672;10.014;2023-07-13T21:58:40;16.10;99.90
29363;DHT22;16349;53.672;10.014;2023-07-13T22:01:14;16.00;99.90
29363;DHT22;16349;53.672;10.014;2023-07-13T22:03:44;16.00;99.90
29363;DHT22;16349;53.672;10.014;2023-07-13T22:06:19;16.00;99.90
29363;DHT22;16349;53.672;10.014;2023-07-13T22:08:47;15.90;99.90
29363;DHT22;16349;53.672;10.014;2023-07-13T22:11:16;15.90;99.90
29363;DHT22;16349;53.672;10.014;2023-07-13T22:13:43;15.90;99.90
29363;DHT22;16349;53.672;10.014;2023-07-13T22:16:15;15.80;99.90
29363;DHT22;16349;53.672;10.014;2023-07-13T22:18:44;15.70;99.90
29363;DHT22;16349;53.672;10.014;2023-07-13T22:21:11;15.70;99.90
29363;DHT22;16349;53.672;10.014;2023-07-13T22:23:39;15.70;99.90
29363;DHT22;16349;53.672;10.014;2023-07-13T22:26:17;15.70;99.90
29363;DHT22;16349;53.672;10.014;2023-07-13T22:28:47;15.70;99.90
29363;DHT22;16349;53.672;10.014;2023-07-13T22:31:15;15.70;99.90
29363;DHT22;16349;53.672;10.014;2023-07-13T22:33:42;15.60;99.90
29363;DHT22;16349;53.672;10.014;2023-07-13T22:36:10;15.60;99.90
29363;DHT22;16349;53.672;10.014;2023-07-13T22:38:38;15.60;99.90
29363;DHT22;16349;53.672;10.014;2023-07-13T22:41:05;15.50;99.90
29363;DHT22;16349;53.672;10.014;2023-07-13T22:43:32;15.50;99.90
29363;DHT22;16349;53.672;10.014;2023-07-13T22:46:01;15.50;99.90
29363;DHT22;16349;53.672;10.014;2023-07-13T22:48:37;15.50;99.90
29363;DHT22;16349;53.672;10.014;2023-07-13T22:51:12;15.50;99.90
29363;DHT22;16349;53.672;10.014;2023-07-13T22:53:39;15.40;99.90
29363;DHT22;16349;53.672;10.014;2023-07-13T22:56:07;15.40;99.90
29363;DHT22;16349;53.672;10.014;2023-07-13T22:58:34;15.40;99.90
29363;DHT22;16349;53.672;10.014;2023-07-13T23:01:01;15.30;99.90
29363;DHT22;16349;53.672;10.014;2023-07-13T23:03:31;15.30;99.90
29363;DHT22;16349;53.672;10.014;2023-07-13T23:05:59;15.30;99.90
29363;DHT22;16349;53.672;10.014;2023-07-13T23:08:28;15.20;99.90
29363;DHT22;16349;53.672;10.014;2023-07-13T23:10:55;15.20;99.90
29363;DHT22;16349;53.672;10.014;2023-07-13T23:13:26;15.20;99.90
29363;DHT22;16349;53.672;10.014;2023-07-13T23:15:53;15.20;99.90
29363;DHT22;16349;53.672;10.014;2023-07-13T23:18:21;15.20;99.90
29363;DHT22;16349;53.672;10.014;2023-07-13T23:20:48;15.10;99.90
29363;DHT22;16349;53.672;10.014;2023-07-13T23:23:17;15.10;99.90
29363;DHT22;16349;53.672;10.014;2023-07-13T23:25:45;15.10;99.90
29363;DHT22;16349;53.672;10.014;2023-07-13T23:28:12;15.00;99.90
29363;DHT22;16349;53.672;10.014;2023-07-13T23:30:44;15.00;99.90
29363;DHT22;16349;53.672;10.014;2023-07-13T23:33:18;15.10;99.90
29363;DHT22;16349;53.672;10.014;2023-07-13T23:35:48;15.00;99.90
29363;DHT22;16349;53.672;10.014;2023-07-13T23:38:15;15.10;99.90
29363;DHT22;16349;53.672;10.014;2023-07-13T23:40:42;15.10;99.90
29363;DHT22;16349;53.672;10.014;2023-07-13T23:43:10;15.10;99.90
29363;DHT22;16349;53.672;10.014;2023-07-13T23:45:37;15.10;99.90
29363;DHT22;16349;53.672;10.014;2023-07-13T23:48:08;15.10;99.90
29363;DHT22;16349;53.672;10.014;2023-07-13T23:50:36;15.10;99.90
29363;DHT22;16349;53.672;10.014;2023-07-13T23:53:03;15.00;99.90
29363;DHT22;16349;53.672;10.014;2023-07-13T23:55:32;15.00;99.90
29363;DHT22;16349;53.672;10.014;2023-07-13T23:58:02;15.00;99.90
